Tucumcari Municipal Airport
KTCC : now visible

Airfield :











YOU CAN JOIN US ON...

 
LOGIN :

Register | Disclaimer

   EN    FR    IT 

 









Legend :    VFR   Marginal VFR   IFR   Intensive IFR   Very Intensive IFR
Visi :
Ceiling :
>= 8 km
>= 3000ft
5 to 8 km
1000 to 3000 ft
1500m to 5 km
500 to 1000 ft
800 to 1500m
200 to 500 ft
< 800m
< 200 ft
Symbols :   Thunderstorms  Fog  Heavy snow  Heavy precipitations  Wind > 20 kt






- Airport Elevation : 4065 ft


KTCC - Tucumcari Municipal

CURRENT METAR :
  • 212153Z AUTO 31016G20KT 10SM CLR 21/M13 A2993 RMK AO2 SLP105 T02061128

EXPIRED METARs :
  • 212053Z AUTO 35011KT 10SM CLR 21/M13 A2992 RMK AO2 SLP104 T02061128 56017
  • 211953Z AUTO 29016G25KT 10SM CLR 19/M13 A2992 RMK AO2 PK WND 31026/1940 SLP105 T01941128

TAF KTCC
Valid from the 21 at 18:00 until the 22 at 18:00 UTC


211737Z 2118/2218 29011KT P6SM FEW250
TEMPO 2118/2120 30011G21KT
FM212000 30016G26KT P6SM FEW250
FM212300 32014KT P6SM FEW100
FM220000 35011KT P6SM FEW100
FM220400 36006KT P6SM FEW250



MET'MAP, your aeronautical weather chart ! - Copyright ORBIFLY December 2007 - Disclaimer

ORBIFLY MET'MAP TEAM :

Programming & Development : Alexandra Zaïnal
Concept & Development : Baudouin d'Aumeries
Co-Development & Prog : Marc-Olivier Méhu
Technical & hardware support : Manuel Goepfert

Contact : metmap@orbifly.com




SOURCES & CREDITS :

   NOAA       Earth
Advisory